sensor_id;sensor_type;location;lat;lon;timestamp;pressure;altitude;pressure_sealevel;temperature;humidity
28927;BME280;16038;47.692;9.400;2023-02-07T00:01:47;98090.28;;;-3.76;100.00
28927;BME280;16038;47.692;9.400;2023-02-07T00:04:12;98108.03;;;-3.87;100.00
28927;BME280;16038;47.692;9.400;2023-02-07T00:06:38;98105.94;;;-3.85;100.00
28927;BME280;16038;47.692;9.400;2023-02-07T00:09:04;98107.56;;;-3.84;100.00
28927;BME280;16038;47.692;9.400;2023-02-07T00:11:29;98107.00;;;-3.86;100.00
28927;BME280;16038;47.692;9.400;2023-02-07T00:13:55;98104.88;;;-3.84;100.00
28927;BME280;16038;47.692;9.400;2023-02-07T00:16:21;98110.69;;;-3.75;100.00
28927;BME280;16038;47.692;9.400;2023-02-07T00:18:47;98104.84;;;-3.72;100.00
28927;BME280;16038;47.692;9.400;2023-02-07T00:21:14;98113.78;;;-3.67;100.00
28927;BME280;16038;47.692;9.400;2023-02-07T00:23:39;98123.94;;;-3.69;100.00
28927;BME280;16038;47.692;9.400;2023-02-07T00:26:06;98114.25;;;-3.70;100.00
28927;BME280;16038;47.692;9.400;2023-02-07T00:28:31;98109.97;;;-3.71;100.00
28927;BME280;16038;47.692;9.400;2023-02-07T00:31:08;98091.47;;;-3.72;100.00
28927;BME280;16038;47.692;9.400;2023-02-07T00:33:34;98092.41;;;-3.78;100.00
28927;BME280;16038;47.692;9.400;2023-02-07T00:36:01;98108.47;;;-3.78;100.00
28927;BME280;16038;47.692;9.400;2023-02-07T00:38:26;98082.53;;;-3.78;100.00
28927;BME280;16038;47.692;9.400;2023-02-07T00:40:52;98094.19;;;-3.84;100.00
28927;BME280;16038;47.692;9.400;2023-02-07T00:43:17;98097.59;;;-3.89;100.00
28927;BME280;16038;47.692;9.400;2023-02-07T00:45:42;98091.91;;;-3.92;100.00
28927;BME280;16038;47.692;9.400;2023-02-07T00:48:08;98091.06;;;-3.93;100.00
28927;BME280;16038;47.692;9.400;2023-02-07T00:50:33;98089.22;;;-3.92;100.00
28927;BME280;16038;47.692;9.400;2023-02-07T00:52:58;98094.56;;;-3.92;100.00
28927;BME280;16038;47.692;9.400;2023-02-07T00:55:24;98097.50;;;-3.94;100.00
28927;BME280;16038;47.692;9.400;2023-02-07T00:57:49;98080.28;;;-3.98;100.00
28927;BME280;16038;47.692;9.400;2023-02-07T01:00:14;98080.53;;;-3.99;100.00
28927;BME280;16038;47.692;9.400;2023-02-07T01:02:40;98085.13;;;-3.95;100.00
28927;BME280;16038;47.692;9.400;2023-02-07T01:05:05;98096.34;;;-3.98;100.00
28927;BME280;16038;47.692;9.400;2023-02-07T01:07:32;98084.34;;;-3.95;100.00
28927;BME280;16038;47.692;9.400;2023-02-07T01:09:57;98093.06;;;-4.00;100.00
28927;BME280;16038;47.692;9.400;2023-02-07T01:12:22;98097.38;;;-3.99;100.00
28927;BME280;16038;47.692;9.400;2023-02-07T01:14:48;98063.78;;;-4.07;100.00
28927;BME280;16038;47.692;9.400;2023-02-07T01:17:13;98082.38;;;-4.00;100.00
28927;BME280;16038;47.692;9.400;2023-02-07T01:19:38;98090.66;;;-4.01;100.00
28927;BME280;16038;47.692;9.400;2023-02-07T01:22:04;98094.25;;;-3.96;100.00
28927;BME280;16038;47.692;9.400;2023-02-07T01:24:30;98093.91;;;-3.99;100.00
28927;BME280;16038;47.692;9.400;2023-02-07T01:26:55;98073.28;;;-3.99;100.00
28927;BME280;16038;47.692;9.400;2023-02-07T01:29:20;98106.72;;;-4.01;100.00
28927;BME280;16038;47.692;9.400;2023-02-07T01:31:46;98101.81;;;-4.05;100.00
28927;BME280;16038;47.692;9.400;2023-02-07T01:34:11;98094.03;;;-4.06;100.00
28927;BME280;16038;47.692;9.400;2023-02-07T01:36:37;98100.09;;;-4.11;100.00
28927;BME280;16038;47.692;9.400;2023-02-07T01:39:03;98102.28;;;-4.08;100.00
28927;BME280;16038;47.692;9.400;2023-02-07T01:41:29;98101.72;;;-4.10;100.00
28927;BME280;16038;47.692;9.400;2023-02-07T01:46:29;98105.78;;;-4.07;100.00
28927;BME280;16038;47.692;9.400;2023-02-07T01:48:57;98114.31;;;-4.10;100.00
28927;BME280;16038;47.692;9.400;2023-02-07T01:51:22;98128.94;;;-4.13;100.00
28927;BME280;16038;47.692;9.400;2023-02-07T01:53:48;98132.47;;;-4.12;100.00
28927;BME280;16038;47.692;9.400;2023-02-07T01:56:14;98129.78;;;-4.12;100.00
28927;BME280;16038;47.692;9.400;2023-02-07T01:58:40;98125.00;;;-4.10;100.00
28927;BME280;16038;47.692;9.400;2023-02-07T02:01:09;98124.91;;;-4.15;100.00
28927;BME280;16038;47.692;9.400;2023-02-07T02:03:35;98123.94;;;-4.09;100.00
28927;BME280;16038;47.692;9.400;2023-02-07T02:06:02;98126.50;;;-4.14;100.00
28927;BME280;16038;47.692;9.400;2023-02-07T02:08:27;98139.41;;;-4.11;100.00
28927;BME280;16038;47.692;9.400;2023-02-07T02:11:01;98133.97;;;-4.16;100.00
28927;BME280;16038;47.692;9.400;2023-02-07T02:18:40;98124.66;;;-4.14;100.00
28927;BME280;16038;47.692;9.400;2023-02-07T02:31:12;98149.22;;;-4.29;100.00
28927;BME280;16038;47.692;9.400;2023-02-07T02:36:20;98134.56;;;-4.38;100.00
28927;BME280;16038;47.692;9.400;2023-02-07T02:39:07;98117.50;;;-4.37;100.00
28927;BME280;16038;47.692;9.400;2023-02-07T02:41:41;98119.94;;;-4.35;100.00
28927;BME280;16038;47.692;9.400;2023-02-07T02:44:12;98123.19;;;-4.33;100.00
28927;BME280;16038;47.692;9.400;2023-02-07T02:46:40;98127.13;;;-4.36;100.00
28927;BME280;16038;47.692;9.400;2023-02-07T02:49:06;98127.13;;;-4.36;100.00
28927;BME280;16038;47.692;9.400;2023-02-07T02:51:33;98124.44;;;-4.36;100.00
28927;BME280;16038;47.692;9.400;2023-02-07T02:53:58;98133.31;;;-4.35;100.00
28927;BME280;16038;47.692;9.400;2023-02-07T02:56:44;98145.50;;;-4.39;100.00
28927;BME280;16038;47.692;9.400;2023-02-07T03:12:17;98149.13;;;-4.46;100.00
28927;BME280;16038;47.692;9.400;2023-02-07T03:17:13;98141.78;;;-4.50;100.00
28927;BME280;16038;47.692;9.400;2023-02-07T03:22:07;98179.84;;;-4.48;100.00
28927;BME280;16038;47.692;9.400;2023-02-07T03:24:36;98158.09;;;-4.52;100.00
28927;BME280;16038;47.692;9.400;2023-02-07T03:27:03;98172.84;;;-4.49;100.00
28927;BME280;16038;47.692;9.400;2023-02-07T03:29:30;98170.63;;;-4.52;100.00
28927;BME280;16038;47.692;9.400;2023-02-07T03:31:57;98173.31;;;-4.52;100.00
28927;BME280;16038;47.692;9.400;2023-02-07T03:35:10;98178.31;;;-4.56;100.00
28927;BME280;16038;47.692;9.400;2023-02-07T03:39:41;98182.63;;;-4.55;100.00
28927;BME280;16038;47.692;9.400;2023-02-07T03:42:09;98196.00;;;-4.55;100.00
28927;BME280;16038;47.692;9.400;2023-02-07T03:44:38;98199.94;;;-4.57;100.00
28927;BME280;16038;47.692;9.400;2023-02-07T03:47:05;98194.56;;;-4.57;100.00
28927;BME280;16038;47.692;9.400;2023-02-07T03:49:31;98209.81;;;-4.58;100.00
28927;BME280;16038;47.692;9.400;2023-02-07T03:51:56;98209.00;;;-4.58;100.00
28927;BME280;16038;47.692;9.400;2023-02-07T03:54:21;98218.91;;;-4.59;100.00
28927;BME280;16038;47.692;9.400;2023-02-07T03:56:47;98217.34;;;-4.67;100.00
28927;BME280;16038;47.692;9.400;2023-02-07T03:59:13;98215.75;;;-4.68;100.00
28927;BME280;16038;47.692;9.400;2023-02-07T04:01:38;98228.28;;;-4.68;100.00
28927;BME280;16038;47.692;9.400;2023-02-07T04:04:09;98230.38;;;-4.70;100.00
28927;BME280;16038;47.692;9.400;2023-02-07T04:06:35;98233.53;;;-4.73;100.00
28927;BME280;16038;47.692;9.400;2023-02-07T04:09:00;98228.41;;;-4.75;100.00
28927;BME280;16038;47.692;9.400;2023-02-07T04:11:26;98243.59;;;-4.75;100.00
28927;BME280;16038;47.692;9.400;2023-02-07T04:13:52;98234.66;;;-4.81;100.00
28927;BME280;16038;47.692;9.400;2023-02-07T04:16:17;98229.66;;;-4.77;100.00
28927;BME280;16038;47.692;9.400;2023-02-07T04:18:42;98229.88;;;-4.79;100.00
28927;BME280;16038;47.692;9.400;2023-02-07T04:21:08;98228.50;;;-4.82;100.00
28927;BME280;16038;47.692;9.400;2023-02-07T04:23:33;98240.59;;;-4.79;100.00
28927;BME280;16038;47.692;9.400;2023-02-07T04:25:59;98231.75;;;-4.80;100.00
28927;BME280;16038;47.692;9.400;2023-02-07T04:28:24;98220.84;;;-4.78;100.00
28927;BME280;16038;47.692;9.400;2023-02-07T04:30:50;98241.72;;;-4.87;100.00
28927;BME280;16038;47.692;9.400;2023-02-07T04:33:15;98225.25;;;-4.84;100.00
28927;BME280;16038;47.692;9.400;2023-02-07T04:35:40;98213.03;;;-4.91;100.00
28927;BME280;16038;47.692;9.400;2023-02-07T04:38:06;98221.06;;;-4.91;100.00
28927;BME280;16038;47.692;9.400;2023-02-07T04:40:31;98217.78;;;-4.93;100.00
28927;BME280;16038;47.692;9.400;2023-02-07T04:42:56;98213.25;;;-4.93;100.00
28927;BME280;16038;47.692;9.400;2023-02-07T04:45:22;98209.75;;;-4.93;100.00
28927;BME280;16038;47.692;9.400;2023-02-07T04:47:47;98213.72;;;-4.96;100.00
28927;BME280;16038;47.692;9.400;2023-02-07T04:50:12;98222.53;;;-4.95;100.00
28927;BME280;16038;47.692;9.400;2023-02-07T04:52:38;98212.69;;;-4.95;100.00
28927;BME280;16038;47.692;9.400;2023-02-07T04:55:05;98223.03;;;-4.87;100.00
28927;BME280;16038;47.692;9.400;2023-02-07T04:57:31;98229.31;;;-4.93;100.00
28927;BME280;16038;47.692;9.400;2023-02-07T04:59:56;98227.44;;;-4.92;100.00
28927;BME280;16038;47.692;9.400;2023-02-07T05:02:21;98233.72;;;-4.98;100.00
28927;BME280;16038;47.692;9.400;2023-02-07T05:04:47;98237.81;;;-4.84;100.00
28927;BME280;16038;47.692;9.400;2023-02-07T05:07:12;98240.72;;;-4.86;100.00
28927;BME280;16038;47.692;9.400;2023-02-07T05:09:37;98240.34;;;-4.89;100.00
28927;BME280;16038;47.692;9.400;2023-02-07T05:12:03;98240.34;;;-4.89;100.00
28927;BME280;16038;47.692;9.400;2023-02-07T05:14:28;98240.34;;;-4.89;100.00
28927;BME280;16038;47.692;9.400;2023-02-07T05:16:53;98239.16;;;-4.93;100.00
28927;BME280;16038;47.692;9.400;2023-02-07T05:19:18;98232.66;;;-4.97;100.00
28927;BME280;16038;47.692;9.400;2023-02-07T05:21:44;98230.56;;;-4.95;100.00
28927;BME280;16038;47.692;9.400;2023-02-07T05:24:09;98226.50;;;-4.98;100.00
28927;BME280;16038;47.692;9.400;2023-02-07T05:26:34;98235.09;;;-4.96;100.00
28927;BME280;16038;47.692;9.400;2023-02-07T05:29:00;98239.50;;;-5.02;100.00
28927;BME280;16038;47.692;9.400;2023-02-07T05:31:25;98240.09;;;-5.00;100.00
28927;BME280;16038;47.692;9.400;2023-02-07T05:34:10;98227.06;;;-4.96;100.00
28927;BME280;16038;47.692;9.400;2023-02-07T05:36:35;98232.41;;;-4.96;100.00
28927;BME280;16038;47.692;9.400;2023-02-07T05:39:01;98220.44;;;-4.93;100.00
28927;BME280;16038;47.692;9.400;2023-02-07T05:41:26;98224.75;;;-4.92;100.00
28927;BME280;16038;47.692;9.400;2023-02-07T05:43:52;98221.16;;;-4.98;100.00
28927;BME280;16038;47.692;9.400;2023-02-07T05:46:17;98221.97;;;-4.97;100.00
28927;BME280;16038;47.692;9.400;2023-02-07T05:48:42;98224.41;;;-4.96;100.00
28927;BME280;16038;47.692;9.400;2023-02-07T05:51:07;98225.00;;;-4.94;100.00
28927;BME280;16038;47.692;9.400;2023-02-07T05:53:33;98222.91;;;-4.92;100.00
28927;BME280;16038;47.692;9.400;2023-02-07T05:55:58;98217.53;;;-4.92;100.00
28927;BME280;16038;47.692;9.400;2023-02-07T05:58:23;98226.28;;;-4.96;100.00
28927;BME280;16038;47.692;9.400;2023-02-07T06:00:49;98230.19;;;-4.99;100.00
28927;BME280;16038;47.692;9.400;2023-02-07T06:03:14;98229.16;;;-4.98;100.00
28927;BME280;16038;47.692;9.400;2023-02-07T06:05:39;98227.06;;;-4.96;100.00
28927;BME280;16038;47.692;9.400;2023-02-07T06:08:07;98226.28;;;-4.96;100.00
28927;BME280;16038;47.692;9.400;2023-02-07T06:10:33;98227.06;;;-4.96;100.00
28927;BME280;16038;47.692;9.400;2023-02-07T06:12:58;98233.22;;;-4.95;100.00
28927;BME280;16038;47.692;9.400;2023-02-07T06:15:23;98224.53;;;-4.91;100.00
28927;BME280;16038;47.692;9.400;2023-02-07T06:17:49;98222.91;;;-4.92;100.00
28927;BME280;16038;47.692;9.400;2023-02-07T06:20:14;98225.22;;;-4.95;100.00
28927;BME280;16038;47.692;9.400;2023-02-07T06:22:40;98228.94;;;-4.96;100.00
28927;BME280;16038;47.692;9.400;2023-02-07T06:25:05;98233.44;;;-4.97;100.00
28927;BME280;16038;47.692;9.400;2023-02-07T06:27:36;98231.63;;;-4.96;100.00
28927;BME280;16038;47.692;9.400;2023-02-07T06:30:01;98241.16;;;-4.89;100.00
28927;BME280;16038;47.692;9.400;2023-02-07T06:32:26;98245.47;;;-4.88;100.00
28927;BME280;16038;47.692;9.400;2023-02-07T06:34:52;98259.56;;;-4.81;100.00
28927;BME280;16038;47.692;9.400;2023-02-07T06:37:17;98256.25;;;-4.83;100.00
28927;BME280;16038;47.692;9.400;2023-02-07T06:39:42;98261.03;;;-4.85;100.00
28927;BME280;16038;47.692;9.400;2023-02-07T06:42:07;98266.16;;;-4.83;100.00
28927;BME280;16038;47.692;9.400;2023-02-07T06:44:33;98264.97;;;-4.87;100.00
28927;BME280;16038;47.692;9.400;2023-02-07T06:46:58;98259.50;;;-4.92;100.00
28927;BME280;16038;47.692;9.400;2023-02-07T06:49:23;98271.13;;;-4.87;100.00
28927;BME280;16038;47.692;9.400;2023-02-07T06:51:49;98266.25;;;-4.90;100.00
28927;BME280;16038;47.692;9.400;2023-02-07T06:54:14;98267.59;;;-4.99;100.00
28927;BME280;16038;47.692;9.400;2023-02-07T06:56:39;98265.78;;;-4.98;100.00
28927;BME280;16038;47.692;9.400;2023-02-07T06:59:05;98256.13;;;-5.00;100.00
28927;BME280;16038;47.692;9.400;2023-02-07T07:01:30;98245.06;;;-5.03;100.00
28927;BME280;16038;47.692;9.400;2023-02-07T07:03:56;98253.88;;;-5.03;100.00
28927;BME280;16038;47.692;9.400;2023-02-07T07:06:21;98247.16;;;-5.05;100.00
28927;BME280;16038;47.692;9.400;2023-02-07T07:08:46;98229.25;;;-5.05;100.00
28927;BME280;16038;47.692;9.400;2023-02-07T07:11:11;98247.75;;;-5.03;100.00
28927;BME280;16038;47.692;9.400;2023-02-07T07:13:37;98251.34;;;-4.97;100.00
28927;BME280;16038;47.692;9.400;2023-02-07T07:16:02;98254.59;;;-4.95;100.00
28927;BME280;16038;47.692;9.400;2023-02-07T07:18:27;98256.03;;;-4.81;100.00
28927;BME280;16038;47.692;9.400;2023-02-07T07:20:53;98270.56;;;-4.89;100.00
28927;BME280;16038;47.692;9.400;2023-02-07T07:23:19;98271.59;;;-4.90;100.00
28927;BME280;16038;47.692;9.400;2023-02-07T07:25:44;98283.00;;;-4.83;100.00
28927;BME280;16038;47.692;9.400;2023-02-07T07:28:10;98282.59;;;-4.68;100.00
28927;BME280;16038;47.692;9.400;2023-02-07T07:30:35;98286.25;;;-4.27;100.00
28927;BME280;16038;47.692;9.400;2023-02-07T07:33:00;98282.53;;;-4.02;100.00
28927;BME280;16038;47.692;9.400;2023-02-07T07:35:26;98295.09;;;-3.67;100.00
28927;BME280;16038;47.692;9.400;2023-02-07T07:37:52;98282.00;;;-3.52;100.00
28927;BME280;16038;47.692;9.400;2023-02-07T07:40:18;98301.19;;;-3.55;100.00
28927;BME280;16038;47.692;9.400;2023-02-07T07:42:43;98287.19;;;-3.33;100.00
28927;BME280;16038;47.692;9.400;2023-02-07T07:45:08;98298.69;;;-3.21;100.00
28927;BME280;16038;47.692;9.400;2023-02-07T07:47:35;98293.88;;;-3.07;98.98
28927;BME280;16038;47.692;9.400;2023-02-07T07:50:00;98285.03;;;-2.45;95.46
28927;BME280;16038;47.692;9.400;2023-02-07T07:52:25;98278.41;;;-3.17;98.09
28927;BME280;16038;47.692;9.400;2023-02-07T07:54:50;98283.66;;;-3.22;100.00
28927;BME280;16038;47.692;9.400;2023-02-07T07:57:16;98294.19;;;-3.03;98.47
28927;BME280;16038;47.692;9.400;2023-02-07T07:59:41;98299.25;;;-2.90;96.86
28927;BME280;16038;47.692;9.400;2023-02-07T08:02:08;98301.53;;;-2.70;98.54
28927;BME280;16038;47.692;9.400;2023-02-07T08:04:33;98297.44;;;-2.73;94.95
28927;BME280;16038;47.692;9.400;2023-02-07T08:06:58;98304.81;;;-2.80;97.15
28927;BME280;16038;47.692;9.400;2023-02-07T08:09:24;98301.75;;;-2.72;97.00
28927;BME280;16038;47.692;9.400;2023-02-07T08:11:49;98306.47;;;-2.79;97.98
28927;BME280;16038;47.692;9.400;2023-02-07T08:14:15;98314.41;;;-2.21;96.33
28927;BME280;16038;47.692;9.400;2023-02-07T08:16:40;98319.44;;;-2.42;93.72
28927;BME280;16038;47.692;9.400;2023-02-07T08:19:05;98307.66;;;-2.24;94.65
28927;BME280;16038;47.692;9.400;2023-02-07T08:21:31;98309.41;;;-2.63;95.02
28927;BME280;16038;47.692;9.400;2023-02-07T08:23:56;98314.97;;;-1.85;90.81
28927;BME280;16038;47.692;9.400;2023-02-07T08:26:22;98314.28;;;-1.76;90.76
28927;BME280;16038;47.692;9.400;2023-02-07T08:28:47;98305.09;;;-2.31;92.67
28927;BME280;16038;47.692;9.400;2023-02-07T08:31:13;98314.22;;;-2.15;91.08
28927;BME280;16038;47.692;9.400;2023-02-07T08:33:38;98306.00;;;-1.91;89.50
28927;BME280;16038;47.692;9.400;2023-02-07T08:36:04;98306.25;;;-2.09;90.96
28927;BME280;16038;47.692;9.400;2023-02-07T08:38:32;98297.00;;;-2.19;93.42
28927;BME280;16038;47.692;9.400;2023-02-07T08:40:57;98306.34;;;-2.04;90.68
28927;BME280;16038;47.692;9.400;2023-02-07T08:43:23;98308.13;;;-1.10;88.27
28927;BME280;16038;47.692;9.400;2023-02-07T08:45:48;98305.63;;;-0.94;84.76
28927;BME280;16038;47.692;9.400;2023-02-07T08:48:13;98319.16;;;-1.73;87.89
28927;BME280;16038;47.692;9.400;2023-02-07T08:50:39;98327.78;;;-1.87;91.49
28927;BME280;16038;47.692;9.400;2023-02-07T08:53:05;98315.34;;;-0.66;85.57
28927;BME280;16038;47.692;9.400;2023-02-07T08:55:30;98320.56;;;-1.48;86.88
28927;BME280;16038;47.692;9.400;2023-02-07T08:57:55;98327.41;;;-1.40;88.80
28927;BME280;16038;47.692;9.400;2023-02-07T09:00:21;98319.41;;;-1.35;88.65
28927;BME280;16038;47.692;9.400;2023-02-07T09:02:46;98319.00;;;-1.83;88.98
28927;BME280;16038;47.692;9.400;2023-02-07T09:05:12;98321.53;;;-1.76;88.31
28927;BME280;16038;47.692;9.400;2023-02-07T09:07:37;98327.00;;;-1.05;86.09
28927;BME280;16038;47.692;9.400;2023-02-07T09:10:03;98319.88;;;-0.94;84.88
28927;BME280;16038;47.692;9.400;2023-02-07T09:12:31;98321.09;;;-0.52;80.90
28927;BME280;16038;47.692;9.400;2023-02-07T09:14:56;98320.53;;;-1.53;84.10
28927;BME280;16038;47.692;9.400;2023-02-07T09:17:22;98325.75;;;-1.41;87.71
28927;BME280;16038;47.692;9.400;2023-02-07T09:19:47;98324.56;;;-1.50;86.35
28927;BME280;16038;47.692;9.400;2023-02-07T09:22:12;98332.91;;;-1.69;87.32
28927;BME280;16038;47.692;9.400;2023-02-07T09:24:37;98327.00;;;-1.88;88.71
28927;BME280;16038;47.692;9.400;2023-02-07T09:27:03;98329.69;;;-1.88;88.42
28927;BME280;16038;47.692;9.400;2023-02-07T09:29:28;98337.19;;;-1.51;89.15
28927;BME280;16038;47.692;9.400;2023-02-07T09:31:54;98336.34;;;-1.35;90.01
28927;BME280;16038;47.692;9.400;2023-02-07T09:34:19;98335.59;;;-1.08;87.12
28927;BME280;16038;47.692;9.400;2023-02-07T09:36:44;98338.47;;;-1.37;86.91
28927;BME280;16038;47.692;9.400;2023-02-07T09:39:10;98341.34;;;-1.43;85.82
28927;BME280;16038;47.692;9.400;2023-02-07T09:41:50;98338.09;;;-0.79;83.45
28927;BME280;16038;47.692;9.400;2023-02-07T09:44:21;98346.16;;;-1.23;86.70
28927;BME280;16038;47.692;9.400;2023-02-07T09:47:01;98344.03;;;-1.21;85.79
28927;BME280;16038;47.692;9.400;2023-02-07T09:52:03;98353.34;;;-1.07;84.55
28927;BME280;16038;47.692;9.400;2023-02-07T09:54:33;98338.94;;;-0.96;85.42
28927;BME280;16038;47.692;9.400;2023-02-07T09:57:02;98342.75;;;-1.36;84.50
28927;BME280;16038;47.692;9.400;2023-02-07T09:59:33;98348.03;;;-1.46;85.05
28927;BME280;16038;47.692;9.400;2023-02-07T10:02:03;98339.72;;;-1.00;85.69
28927;BME280;16038;47.692;9.400;2023-02-07T10:04:37;98347.03;;;-0.73;83.65
28927;BME280;16038;47.692;9.400;2023-02-07T10:07:05;98352.72;;;-1.36;86.18
28927;BME280;16038;47.692;9.400;2023-02-07T10:09:38;98347.72;;;-0.56;84.23
28927;BME280;16038;47.692;9.400;2023-02-07T10:27:19;98374.31;;;-1.09;84.94
28927;BME280;16038;47.692;9.400;2023-02-07T10:29:48;98374.19;;;-0.97;86.92
28927;BME280;16038;47.692;9.400;2023-02-07T10:32:48;98372.22;;;-0.57;83.67
28927;BME280;16038;47.692;9.400;2023-02-07T10:35:15;98372.94;;;-0.89;84.53
28927;BME280;16038;47.692;9.400;2023-02-07T10:37:42;98368.06;;;-0.65;85.42
28927;BME280;16038;47.692;9.400;2023-02-07T10:42:36;98375.41;;;-0.33;82.14
28927;BME280;16038;47.692;9.400;2023-02-07T10:45:03;98379.63;;;-0.43;82.60
28927;BME280;16038;47.692;9.400;2023-02-07T10:47:29;98367.16;;;-0.49;84.35
28927;BME280;16038;47.692;9.400;2023-02-07T10:49:54;98365.56;;;-0.50;82.25
28927;BME280;16038;47.692;9.400;2023-02-07T10:57:18;98363.19;;;0.61;79.52
28927;BME280;16038;47.692;9.400;2023-02-07T10:59:43;98368.09;;;-0.06;82.48
28927;BME280;16038;47.692;9.400;2023-02-07T11:04:56;98367.03;;;-0.64;84.23
28927;BME280;16038;47.692;9.400;2023-02-07T11:07:21;98370.03;;;-0.61;84.21
28927;BME280;16038;47.692;9.400;2023-02-07T11:09:47;98370.09;;;-0.78;84.90
28927;BME280;16038;47.692;9.400;2023-02-07T11:12:14;98376.25;;;-0.82;86.45
28927;BME280;16038;47.692;9.400;2023-02-07T11:14:40;98370.38;;;-0.79;86.05
28927;BME280;16038;47.692;9.400;2023-02-07T11:17:22;98378.00;;;-0.93;85.73
28927;BME280;16038;47.692;9.400;2023-02-07T11:19:48;98369.47;;;-1.07;87.70
28927;BME280;16038;47.692;9.400;2023-02-07T11:22:16;98381.13;;;-0.79;85.97
28927;BME280;16038;47.692;9.400;2023-02-07T11:24:43;98385.88;;;-1.08;87.07
28927;BME280;16038;47.692;9.400;2023-02-07T11:29:35;98376.22;;;-0.33;85.50
28927;BME280;16038;47.692;9.400;2023-02-07T11:32:02;98377.38;;;-0.24;82.86
28927;BME280;16038;47.692;9.400;2023-02-07T11:34:30;98380.44;;;-0.42;82.39
28927;BME280;16038;47.692;9.400;2023-02-07T11:39:40;98364.91;;;-0.03;83.01
28927;BME280;16038;47.692;9.400;2023-02-07T11:42:08;98377.03;;;-0.05;83.55
28927;BME280;16038;47.692;9.400;2023-02-07T11:44:35;98370.69;;;0.54;82.17
28927;BME280;16038;47.692;9.400;2023-02-07T11:47:04;98372.41;;;0.65;81.42
28927;BME280;16038;47.692;9.400;2023-02-07T11:52:01;98368.97;;;-0.32;83.82
28927;BME280;16038;47.692;9.400;2023-02-07T11:54:27;98372.13;;;-0.08;83.57
28927;BME280;16038;47.692;9.400;2023-02-07T11:57:04;98373.53;;;-0.60;84.77
28927;BME280;16038;47.692;9.400;2023-02-07T11:59:30;98376.28;;;-0.28;85.28
28927;BME280;16038;47.692;9.400;2023-02-07T12:02:04;98365.94;;;-0.63;83.88
28927;BME280;16038;47.692;9.400;2023-02-07T12:04:34;98372.41;;;-0.64;84.34
28927;BME280;16038;47.692;9.400;2023-02-07T12:09:39;98383.03;;;0.07;82.49
28927;BME280;16038;47.692;9.400;2023-02-07T12:12:08;98370.84;;;0.74;82.78
28927;BME280;16038;47.692;9.400;2023-02-07T12:14:40;98368.44;;;1.46;76.81
28927;BME280;16038;47.692;9.400;2023-02-07T12:17:11;98376.81;;;2.73;72.24
28927;BME280;16038;47.692;9.400;2023-02-07T12:19:42;98373.31;;;2.73;69.58
28927;BME280;16038;47.692;9.400;2023-02-07T12:22:15;98380.16;;;1.09;80.64
28927;BME280;16038;47.692;9.400;2023-02-07T12:24:44;98373.41;;;1.02;77.45
28927;BME280;16038;47.692;9.400;2023-02-07T12:27:15;98374.06;;;0.34;80.74
28927;BME280;16038;47.692;9.400;2023-02-07T12:32:19;98384.47;;;0.52;82.08
28927;BME280;16038;47.692;9.400;2023-02-07T12:42:39;98372.34;;;0.55;81.68
28927;BME280;16038;47.692;9.400;2023-02-07T12:45:08;98369.81;;;0.43;82.22
28927;BME280;16038;47.692;9.400;2023-02-07T12:50:24;98368.41;;;0.73;80.38
28927;BME280;16038;47.692;9.400;2023-02-07T12:58:00;98357.28;;;0.64;78.55
28927;BME280;16038;47.692;9.400;2023-02-07T13:11:07;98359.63;;;0.98;78.57
28927;BME280;16038;47.692;9.400;2023-02-07T13:16:26;98352.94;;;0.58;81.83
28927;BME280;16038;47.692;9.400;2023-02-07T13:21:29;98349.25;;;-0.06;86.19
28927;BME280;16038;47.692;9.400;2023-02-07T13:23:58;98348.28;;;-0.27;85.58
28927;BME280;16038;47.692;9.400;2023-02-07T13:26:24;98353.03;;;-0.07;84.30
28927;BME280;16038;47.692;9.400;2023-02-07T13:31:17;98338.59;;;0.47;84.01
28927;BME280;16038;47.692;9.400;2023-02-07T13:33:47;98338.22;;;0.33;84.47
28927;BME280;16038;47.692;9.400;2023-02-07T13:38:45;98335.88;;;-0.28;87.82
28927;BME280;16038;47.692;9.400;2023-02-07T13:41:20;98335.16;;;-0.45;87.97
28927;BME280;16038;47.692;9.400;2023-02-07T13:46:30;98335.56;;;-0.31;88.21
28927;BME280;16038;47.692;9.400;2023-02-07T13:49:23;98344.88;;;-0.44;88.46
28927;BME280;16038;47.692;9.400;2023-02-07T13:51:59;98340.59;;;-0.40;88.23
28927;BME280;16038;47.692;9.400;2023-02-07T13:54:41;98332.66;;;-0.57;89.47
28927;BME280;16038;47.692;9.400;2023-02-07T13:57:17;98339.72;;;-0.18;89.21
28927;BME280;16038;47.692;9.400;2023-02-07T14:02:40;98337.84;;;-0.50;90.04
28927;BME280;16038;47.692;9.400;2023-02-07T14:05:10;98337.47;;;-0.32;90.61
28927;BME280;16038;47.692;9.400;2023-02-07T14:07:40;98335.16;;;-0.50;90.06
28927;BME280;16038;47.692;9.400;2023-02-07T14:10:06;98345.03;;;-0.29;90.15
28927;BME280;16038;47.692;9.400;2023-02-07T14:12:37;98347.75;;;-0.24;90.53
28927;BME280;16038;47.692;9.400;2023-02-07T14:20:44;98348.31;;;-0.49;91.26
28927;BME280;16038;47.692;9.400;2023-02-07T14:35:37;98344.78;;;-0.54;91.53
28927;BME280;16038;47.692;9.400;2023-02-07T14:48:28;98338.03;;;-0.57;92.96
28927;BME280;16038;47.692;9.400;2023-02-07T14:50:53;98327.81;;;-0.55;93.79
28927;BME280;16038;47.692;9.400;2023-02-07T14:53:19;98329.72;;;-0.55;93.20
28927;BME280;16038;47.692;9.400;2023-02-07T14:55:48;98325.28;;;-0.40;93.08
28927;BME280;16038;47.692;9.400;2023-02-07T14:58:37;98326.28;;;-0.46;91.44
28927;BME280;16038;47.692;9.400;2023-02-07T15:01:00;98327.63;;;-0.48;92.83
28927;BME280;16038;47.692;9.400;2023-02-07T15:03:29;98335.56;;;-0.31;92.65
28927;BME280;16038;47.692;9.400;2023-02-07T15:06:02;98338.53;;;-0.33;91.81
28927;BME280;16038;47.692;9.400;2023-02-07T15:08:29;98340.00;;;-0.47;93.40
28927;BME280;16038;47.692;9.400;2023-02-07T15:10:58;98327.69;;;-0.43;93.54
28927;BME280;16038;47.692;9.400;2023-02-07T15:18:16;98333.69;;;-0.04;91.12
28927;BME280;16038;47.692;9.400;2023-02-07T15:20:43;98336.03;;;-0.12;91.75
28927;BME280;16038;47.692;9.400;2023-02-07T15:23:12;98339.19;;;0.17;90.29
28927;BME280;16038;47.692;9.400;2023-02-07T15:25:39;98333.63;;;-0.09;91.83
28927;BME280;16038;47.692;9.400;2023-02-07T15:28:14;98341.56;;;-0.24;92.63
28927;BME280;16038;47.692;9.400;2023-02-07T15:30:52;98339.34;;;0.00;90.94
28927;BME280;16038;47.692;9.400;2023-02-07T15:33:17;98343.44;;;0.08;90.68